createdAt,value
2023-01-29T00:02:16.638Z,9.55
2023-01-29T00:04:46.661Z,7.55
2023-01-29T00:07:14.502Z,9.30
2023-01-29T00:09:42.278Z,8.25
2023-01-29T00:12:10.047Z,10.02
2023-01-29T00:14:37.681Z,10.43
2023-01-29T00:17:05.364Z,7.63
2023-01-29T00:19:33.038Z,7.93
2023-01-29T00:22:02.004Z,7.82
2023-01-29T00:24:29.710Z,8.38
2023-01-29T00:26:57.448Z,8.77
2023-01-29T00:29:27.061Z,9.32
2023-01-29T00:31:55.213Z,9.88
2023-01-29T00:34:23.606Z,8.50
2023-01-29T00:36:51.207Z,9.20
2023-01-29T00:39:33.683Z,9.35
2023-01-29T00:42:24.492Z,9.45
2023-01-29T00:45:04.491Z,10.45
2023-01-29T00:47:33.453Z,9.88
2023-01-29T00:50:01.656Z,10.27
2023-01-29T00:52:29.916Z,11.15
2023-01-29T00:55:00.096Z,9.77
2023-01-29T00:57:28.767Z,9.48
2023-01-29T00:59:56.460Z,9.82
2023-01-29T01:02:41.986Z,10.98
2023-01-29T01:05:14.038Z,10.27
2023-01-29T01:07:42.063Z,10.25
2023-01-29T01:10:24.152Z,10.65
2023-01-29T01:12:53.751Z,9.48
2023-01-29T01:15:21.844Z,10.43
2023-01-29T01:17:50.110Z,10.05
2023-01-29T01:20:18.597Z,10.70
2023-01-29T01:22:46.464Z,9.35
2023-01-29T01:25:15.549Z,9.68
2023-01-29T01:27:43.262Z,10.55
2023-01-29T01:30:12.355Z,10.23
2023-01-29T01:32:40.677Z,9.85
2023-01-29T01:35:09.134Z,10.73
2023-01-29T01:37:39.420Z,9.90
2023-01-29T01:40:12.864Z,8.75
2023-01-29T01:42:42.001Z,10.25
2023-01-29T01:45:18.767Z,11.88
2023-01-29T01:47:48.064Z,11.00
2023-01-29T01:50:17.604Z,12.20
2023-01-29T01:52:46.759Z,11.63
2023-01-29T01:55:15.847Z,10.68
2023-01-29T01:57:46.001Z,12.15
2023-01-29T02:00:15.883Z,10.88
2023-01-29T02:03:01.936Z,10.30
2023-01-29T02:05:49.780Z,10.48
2023-01-29T02:08:38.297Z,10.10
2023-01-29T02:11:07.402Z,10.57
2023-01-29T02:13:37.527Z,10.60
2023-01-29T02:16:05.643Z,10.45
2023-01-29T02:18:39.651Z,11.70
2023-01-29T02:21:25.650Z,11.32
2023-01-29T02:24:05.760Z,9.25
2023-01-29T02:26:47.382Z,9.55
2023-01-29T02:29:25.330Z,9.70
2023-01-29T02:31:57.373Z,10.77
2023-01-29T02:34:30.719Z,9.90
2023-01-29T02:37:02.535Z,10.00
2023-01-29T02:39:33.453Z,11.07
2023-01-29T02:42:03.561Z,11.02
2023-01-29T02:44:36.560Z,11.35
2023-01-29T02:47:06.816Z,11.65
2023-01-29T02:49:37.045Z,9.65
2023-01-29T02:52:09.005Z,9.50
2023-01-29T02:54:41.375Z,9.80
2023-01-29T02:57:16.570Z,11.50
2023-01-29T02:59:52.249Z,9.80
2023-01-29T03:02:21.532Z,8.82
2023-01-29T03:04:51.490Z,9.52
2023-01-29T03:07:38.384Z,10.15
2023-01-29T03:10:13.529Z,10.07
2023-01-29T03:12:42.437Z,10.45
2023-01-29T03:15:15.371Z,10.63
2023-01-29T03:17:46.838Z,9.43
2023-01-29T03:20:16.691Z,10.63
2023-01-29T03:22:46.516Z,9.85
2023-01-29T03:25:32.943Z,9.82
2023-01-29T03:28:18.795Z,10.35
2023-01-29T03:31:07.317Z,10.35
2023-01-29T03:33:42.014Z,9.90
2023-01-29T03:36:14.824Z,9.82
2023-01-29T03:38:42.932Z,9.32
2023-01-29T03:41:13.196Z,12.25
2023-01-29T03:43:43.893Z,10.82
2023-01-29T03:46:19.132Z,10.60
2023-01-29T03:48:53.038Z,10.02
2023-01-29T03:51:25.204Z,10.90
2023-01-29T03:53:55.960Z,10.23
2023-01-29T03:56:32.322Z,10.80
2023-01-29T03:59:02.513Z,9.40
2023-01-29T04:01:34.539Z,10.70
2023-01-29T04:04:04.909Z,11.85
2023-01-29T04:06:33.936Z,10.65
2023-01-29T04:09:07.379Z,10.38
2023-01-29T04:11:36.305Z,9.80
2023-01-29T04:14:04.174Z,10.48
2023-01-29T04:16:36.029Z,10.30
2023-01-29T04:19:04.536Z,11.70
2023-01-29T04:21:32.929Z,12.07
2023-01-29T04:24:00.697Z,10.68
2023-01-29T04:26:43.807Z,9.93
2023-01-29T04:29:17.693Z,10.63
2023-01-29T04:31:50.769Z,10.38
2023-01-29T04:34:22.890Z,10.27
2023-01-29T04:36:57.488Z,10.40
2023-01-29T04:39:27.024Z,10.65
2023-01-29T04:41:59.659Z,11.05
2023-01-29T04:44:32.554Z,10.30
2023-01-29T04:47:06.754Z,10.20
2023-01-29T04:49:43.469Z,11.85
2023-01-29T04:52:17.881Z,9.88
2023-01-29T04:54:51.642Z,11.00
2023-01-29T04:57:30.381Z,10.93
2023-01-29T05:00:00.481Z,10.45
2023-01-29T05:02:37.165Z,9.65
2023-01-29T05:05:07.382Z,10.63
2023-01-29T05:07:36.689Z,10.32
2023-01-29T05:10:05.389Z,10.65
2023-01-29T05:12:43.405Z,10.07
2023-01-29T05:15:15.140Z,10.98
2023-01-29T05:17:45.175Z,12.10
2023-01-29T05:20:13.861Z,9.73
2023-01-29T05:22:42.794Z,10.35
2023-01-29T05:25:20.458Z,12.65
2023-01-29T05:28:07.261Z,11.23
2023-01-29T05:30:36.168Z,12.25
2023-01-29T05:33:18.589Z,12.32
2023-01-29T05:36:25.935Z,11.10
2023-01-29T05:38:55.041Z,10.95
2023-01-29T05:41:23.413Z,12.60
2023-01-29T05:43:54.407Z,11.25
2023-01-29T05:46:22.167Z,13.05
2023-01-29T05:51:38.827Z,10.88
2023-01-29T05:54:07.437Z,10.02
2023-01-29T05:56:35.101Z,10.45
2023-01-29T05:59:02.778Z,11.43
2023-01-29T06:01:31.031Z,11.32
2023-01-29T06:04:01.087Z,11.10
2023-01-29T06:06:30.992Z,11.13
2023-01-29T06:08:59.037Z,13.13
2023-01-29T06:11:26.822Z,12.25
2023-01-29T06:13:54.762Z,11.32
2023-01-29T06:16:22.487Z,10.75
2023-01-29T06:18:54.547Z,10.50
2023-01-29T06:21:24.151Z,11.38
2023-01-29T06:23:53.394Z,10.75
2023-01-29T06:26:21.100Z,10.10
2023-01-29T06:28:50.036Z,12.20
2023-01-29T06:31:37.771Z,10.55
2023-01-29T06:34:05.790Z,11.10
2023-01-29T06:36:35.082Z,11.50
2023-01-29T06:39:03.567Z,10.82
2023-01-29T06:41:31.532Z,10.45
2023-01-29T06:44:02.530Z,11.65
2023-01-29T06:46:30.569Z,10.13
2023-01-29T06:48:59.236Z,11.80
2023-01-29T06:51:27.145Z,11.90
2023-01-29T06:53:56.443Z,11.30
2023-01-29T06:56:24.895Z,10.23
2023-01-29T06:58:52.805Z,10.80
2023-01-29T07:01:36.884Z,11.00
2023-01-29T07:04:04.669Z,10.95
2023-01-29T07:06:33.162Z,10.85
2023-01-29T07:09:02.466Z,10.30
2023-01-29T07:11:30.556Z,11.05
2023-01-29T07:13:58.329Z,11.40
2023-01-29T07:16:29.340Z,12.32
2023-01-29T07:18:57.370Z,11.95
2023-01-29T07:21:25.302Z,12.43
2023-01-29T07:23:52.861Z,12.27
2023-01-29T07:26:22.184Z,11.35
2023-01-29T07:28:49.698Z,11.07
2023-01-29T07:31:23.519Z,11.80
2023-01-29T07:33:51.678Z,10.45
2023-01-29T07:36:20.262Z,11.10
2023-01-29T07:38:50.616Z,12.48
2023-01-29T07:41:18.597Z,11.48
2023-01-29T07:43:47.938Z,10.38
2023-01-29T07:46:15.835Z,12.02
2023-01-29T07:48:49.686Z,11.35
2023-01-29T07:51:19.552Z,12.25
2023-01-29T07:53:56.548Z,12.95
2023-01-29T07:56:24.080Z,15.18
2023-01-29T07:59:03.026Z,12.48
2023-01-29T08:01:47.630Z,11.45
2023-01-29T08:04:17.548Z,11.30
2023-01-29T08:06:51.101Z,12.00
2023-01-29T08:12:13.266Z,12.23
2023-01-29T08:14:42.807Z,10.50
2023-01-29T08:17:10.707Z,11.25
2023-01-29T08:19:38.565Z,13.63
2023-01-29T08:22:06.854Z,14.50
2023-01-29T08:24:47.645Z,13.57
2023-01-29T08:27:21.680Z,14.07
2023-01-29T08:29:50.654Z,14.88
2023-01-29T08:32:18.178Z,14.20
2023-01-29T08:34:45.654Z,14.55
2023-01-29T08:37:13.490Z,13.85
2023-01-29T08:42:08.457Z,13.80
2023-01-29T08:44:36.085Z,12.60
2023-01-29T08:47:05.047Z,11.55
2023-01-29T08:49:33.018Z,12.88
2023-01-29T08:52:02.996Z,12.45
2023-01-29T08:54:30.701Z,12.48
2023-01-29T08:56:58.660Z,13.32
2023-01-29T08:59:26.218Z,13.52
2023-01-29T09:01:53.825Z,13.43
2023-01-29T09:04:26.063Z,12.98
2023-01-29T09:06:53.761Z,14.13
2023-01-29T09:09:21.512Z,12.98
2023-01-29T09:11:49.226Z,13.50
2023-01-29T09:14:16.891Z,12.30
2023-01-29T09:16:47.358Z,11.82
2023-01-29T09:19:15.047Z,12.52
2023-01-29T09:21:44.199Z,14.90
2023-01-29T09:24:12.174Z,11.52
2023-01-29T09:26:40.242Z,11.57
2023-01-29T09:29:08.298Z,11.25
2023-01-29T09:31:36.304Z,12.93
2023-01-29T09:34:04.114Z,11.98
2023-01-29T09:36:31.645Z,11.15
2023-01-29T09:39:00.498Z,11.13
2023-01-29T09:41:33.365Z,10.57
2023-01-29T09:44:02.536Z,9.85
2023-01-29T09:46:34.664Z,11.50
2023-01-29T09:49:04.004Z,12.18
2023-01-29T09:51:32.913Z,9.40
2023-01-29T09:54:07.227Z,9.80
2023-01-29T09:56:36.283Z,11.20
2023-01-29T09:59:03.873Z,10.88
2023-01-29T10:01:34.766Z,11.38
2023-01-29T10:04:17.723Z,9.55
2023-01-29T10:06:51.592Z,10.20
2023-01-29T10:09:46.427Z,9.77
2023-01-29T10:12:22.783Z,10.02
2023-01-29T10:14:54.915Z,10.93
2023-01-29T10:17:32.714Z,10.10
2023-01-29T10:20:17.570Z,9.88
2023-01-29T10:22:51.762Z,9.48
2023-01-29T10:25:21.788Z,10.23
2023-01-29T10:27:52.830Z,10.63
2023-01-29T10:30:29.410Z,9.20
2023-01-29T10:33:00.892Z,10.80
2023-01-29T10:35:31.375Z,10.45
2023-01-29T10:38:00.039Z,11.70
2023-01-29T10:40:30.762Z,9.82
2023-01-29T10:43:04.954Z,9.70
2023-01-29T10:48:06.340Z,10.52
2023-01-29T10:50:40.880Z,9.85
2023-01-29T10:53:18.800Z,9.63
2023-01-29T10:55:52.555Z,9.73
2023-01-29T10:58:29.879Z,10.85
2023-01-29T11:00:57.496Z,9.88
2023-01-29T11:06:16.190Z,9.93
2023-01-29T11:08:47.315Z,11.23
2023-01-29T11:11:15.714Z,10.55
2023-01-29T11:13:49.782Z,10.10
2023-01-29T11:16:17.287Z,10.65
2023-01-29T11:18:52.637Z,10.80
2023-01-29T11:21:20.179Z,9.35
2023-01-29T11:23:47.967Z,10.00
2023-01-29T11:26:19.203Z,9.70
2023-01-29T11:28:48.924Z,9.55
2023-01-29T11:31:17.940Z,10.23
2023-01-29T11:33:46.859Z,9.63
2023-01-29T11:36:29.375Z,8.70
2023-01-29T11:39:15.296Z,9.05
2023-01-29T11:41:48.845Z,8.18
2023-01-29T11:44:21.529Z,8.65
2023-01-29T11:46:49.732Z,8.88
2023-01-29T11:49:23.610Z,8.68
2023-01-29T11:51:53.483Z,8.38
2023-01-29T11:54:21.248Z,7.43
2023-01-29T11:56:49.548Z,8.23
2023-01-29T11:59:27.461Z,8.20
2023-01-29T12:01:55.899Z,9.75
2023-01-29T12:04:25.586Z,11.45
2023-01-29T12:10:03.719Z,9.52
2023-01-29T12:12:37.128Z,8.45
2023-01-29T12:15:15.591Z,9.07
2023-01-29T12:17:45.730Z,9.40
2023-01-29T12:20:15.802Z,9.82
2023-01-29T12:22:50.412Z,8.15
2023-01-29T12:25:25.453Z,8.15
2023-01-29T12:27:57.362Z,9.73
2023-01-29T12:30:30.497Z,8.73
2023-01-29T12:33:00.678Z,8.38
2023-01-29T12:35:29.446Z,8.48
2023-01-29T12:37:59.622Z,8.90
2023-01-29T12:40:29.678Z,7.90
2023-01-29T12:42:58.846Z,8.07
2023-01-29T12:45:28.789Z,8.68
2023-01-29T12:48:06.135Z,8.85
2023-01-29T12:50:35.050Z,8.15
2023-01-29T12:53:06.790Z,8.13
2023-01-29T12:55:38.396Z,8.30
2023-01-29T13:07:30.007Z,7.57
2023-01-29T13:10:01.040Z,7.68
2023-01-29T13:16:56.391Z,7.90
2023-01-29T13:19:28.929Z,7.72
2023-01-29T13:22:01.401Z,8.50
2023-01-29T13:25:02.325Z,8.35
2023-01-29T13:27:41.789Z,7.60
2023-01-29T13:33:21.927Z,7.57
2023-01-29T13:35:50.303Z,8.75
2023-01-29T13:38:23.664Z,7.97
2023-01-29T13:40:53.827Z,8.15
2023-01-29T13:43:22.597Z,6.68
2023-01-29T13:45:52.090Z,8.27
2023-01-29T13:49:08.324Z,8.48
2023-01-29T13:51:37.777Z,6.25
2023-01-29T13:54:08.176Z,7.50
2023-01-29T13:56:49.016Z,7.95
2023-01-29T13:59:34.628Z,8.25
2023-01-29T14:02:06.144Z,9.02
2023-01-29T14:04:51.480Z,9.48
2023-01-29T14:08:05.794Z,8.07
2023-01-29T14:11:00.081Z,8.75
2023-01-29T14:13:29.812Z,9.10
2023-01-29T14:16:18.802Z,8.90
2023-01-29T14:18:57.507Z,9.73
2023-01-29T14:21:28.515Z,9.40
2023-01-29T14:23:57.826Z,8.63
2023-01-29T14:26:30.874Z,8.88
2023-01-29T14:29:03.028Z,8.68
2023-01-29T14:31:38.708Z,8.35
2023-01-29T14:34:09.379Z,8.52
2023-01-29T14:36:41.085Z,10.38
2023-01-29T14:39:19.717Z,9.63
2023-01-29T14:41:47.431Z,9.38
2023-01-29T14:45:03.235Z,9.93
2023-01-29T14:47:50.266Z,9.98
2023-01-29T14:50:38.552Z,9.77
2023-01-29T14:53:11.200Z,9.38
2023-01-29T14:55:40.403Z,9.35
2023-01-29T14:58:14.169Z,9.00
2023-01-29T15:00:46.573Z,9.55
2023-01-29T15:03:25.487Z,9.40
2023-01-29T15:05:53.732Z,9.93
2023-01-29T15:08:30.213Z,8.82
2023-01-29T15:11:16.251Z,9.20
2023-01-29T15:14:30.399Z,10.43
2023-01-29T15:17:11.437Z,10.60
2023-01-29T15:19:44.996Z,10.00
2023-01-29T15:22:13.770Z,10.10
2023-01-29T15:24:43.779Z,9.95
2023-01-29T15:27:14.597Z,10.93
2023-01-29T15:29:46.607Z,11.02
2023-01-29T15:32:17.519Z,10.07
2023-01-29T15:34:45.589Z,10.38
2023-01-29T15:37:30.839Z,9.63
2023-01-29T15:40:08.415Z,10.07
2023-01-29T15:42:44.766Z,8.65
2023-01-29T15:45:22.568Z,8.90
2023-01-29T15:47:53.298Z,9.75
2023-01-29T15:50:22.422Z,8.35
2023-01-29T15:52:52.557Z,9.40
2023-01-29T15:55:24.020Z,8.30
2023-01-29T15:57:52.010Z,8.70
2023-01-29T16:00:31.162Z,9.15
2023-01-29T16:03:20.743Z,9.63
2023-01-29T16:05:49.273Z,9.27
2023-01-29T16:08:31.253Z,8.65
2023-01-29T16:11:10.046Z,7.88
2023-01-29T16:13:44.355Z,8.27
2023-01-29T16:16:30.055Z,8.32
2023-01-29T16:19:04.168Z,7.47
2023-01-29T16:24:28.908Z,8.10
2023-01-29T16:27:04.946Z,7.63
2023-01-29T16:29:46.513Z,7.47
2023-01-29T16:32:16.588Z,6.70
2023-01-29T16:34:48.324Z,7.47
2023-01-29T16:37:47.116Z,9.00
2023-01-29T16:40:16.479Z,7.07
2023-01-29T16:42:46.585Z,6.57
2023-01-29T16:45:27.386Z,6.38
2023-01-29T16:48:15.045Z,6.55
2023-01-29T16:50:54.274Z,6.82
2023-01-29T16:53:25.271Z,5.95
2023-01-29T16:55:53.822Z,6.50
2023-01-29T16:58:23.781Z,6.75
2023-01-29T17:00:52.552Z,6.45
2023-01-29T17:03:21.198Z,6.45
2023-01-29T17:05:50.989Z,6.97
2023-01-29T17:08:21.745Z,6.90
2023-01-29T17:10:49.595Z,7.35
2023-01-29T17:13:21.058Z,5.70
2023-01-29T17:15:50.764Z,6.22
2023-01-29T17:18:20.363Z,5.75
2023-01-29T17:20:48.481Z,6.18
2023-01-29T17:23:19.323Z,5.75
2023-01-29T17:25:47.175Z,6.55
2023-01-29T17:28:16.092Z,6.32
2023-01-29T17:30:50.572Z,6.70
2023-01-29T17:33:25.993Z,5.93
2023-01-29T17:35:53.877Z,5.72
2023-01-29T17:38:26.440Z,6.43
2023-01-29T17:40:56.308Z,6.03
2023-01-29T17:43:23.950Z,5.93
2023-01-29T17:45:52.518Z,5.30
2023-01-29T17:48:21.874Z,6.30
2023-01-29T17:50:53.469Z,6.40
2023-01-29T17:53:21.948Z,4.93
2023-01-29T17:55:50.155Z,5.97
2023-01-29T17:58:19.306Z,6.40
2023-01-29T18:00:46.803Z,7.03
2023-01-29T18:03:14.788Z,5.45
2023-01-29T18:05:45.203Z,5.60
2023-01-29T18:08:16.355Z,5.75
2023-01-29T18:10:45.401Z,5.68
2023-01-29T18:13:22.816Z,5.57
2023-01-29T18:15:50.849Z,5.90
2023-01-29T18:18:20.023Z,6.18
2023-01-29T18:20:47.766Z,6.18
2023-01-29T18:23:15.509Z,5.88
2023-01-29T18:25:43.292Z,7.88
2023-01-29T18:28:14.178Z,5.88
2023-01-29T18:30:50.848Z,6.68
2023-01-29T18:33:19.582Z,6.88
2023-01-29T18:35:48.166Z,6.22
2023-01-29T18:38:16.187Z,6.22
2023-01-29T18:40:45.168Z,7.63
2023-01-29T18:43:14.651Z,8.07
2023-01-29T18:45:42.245Z,7.18
2023-01-29T18:48:10.427Z,6.97
2023-01-29T18:50:37.932Z,7.32
2023-01-29T18:53:05.749Z,7.53
2023-01-29T18:55:33.753Z,7.18
2023-01-29T18:58:27.011Z,7.80
2023-01-29T19:00:51.660Z,8.00
2023-01-29T19:03:19.461Z,7.88
2023-01-29T19:05:47.004Z,7.13
2023-01-29T19:08:14.616Z,7.78
2023-01-29T19:10:42.410Z,7.07
2023-01-29T19:13:10.433Z,7.07
2023-01-29T19:15:40.886Z,7.32
2023-01-29T19:18:09.809Z,5.30
2023-01-29T19:20:40.239Z,6.90
2023-01-29T19:23:07.975Z,5.70
2023-01-29T19:25:38.103Z,5.15
2023-01-29T19:28:06.386Z,4.65
2023-01-29T19:30:34.201Z,4.90
2023-01-29T19:33:02.049Z,5.45
2023-01-29T19:35:34.227Z,4.10
2023-01-29T19:38:03.138Z,4.68
2023-01-29T19:40:31.018Z,5.45
2023-01-29T19:42:58.906Z,4.78
2023-01-29T19:45:42.076Z,5.07
2023-01-29T19:48:16.125Z,5.88
2023-01-29T19:50:52.175Z,4.18
2023-01-29T19:53:20.166Z,4.47
2023-01-29T19:55:49.910Z,4.07
2023-01-29T19:58:21.279Z,5.43
2023-01-29T20:00:59.576Z,5.65
2023-01-29T20:03:31.014Z,5.88
2023-01-29T20:06:04.896Z,6.15
2023-01-29T20:08:40.274Z,7.60
2023-01-29T20:11:27.533Z,7.07
2023-01-29T20:13:55.739Z,7.10
2023-01-29T20:16:33.625Z,7.25
2023-01-29T20:19:13.701Z,7.70
2023-01-29T20:21:50.458Z,6.50
2023-01-29T20:24:24.482Z,7.07
2023-01-29T20:29:58.609Z,6.45
2023-01-29T20:32:38.177Z,7.25
2023-01-29T20:35:09.381Z,7.35
2023-01-29T20:38:12.500Z,6.20
2023-01-29T20:43:52.662Z,6.38
2023-01-29T20:46:48.281Z,7.25
2023-01-29T20:53:13.049Z,6.90
2023-01-29T20:55:41.645Z,6.97
2023-01-29T20:58:14.719Z,6.43
2023-01-29T21:00:44.225Z,7.55
2023-01-29T21:03:12.197Z,7.65
2023-01-29T21:05:40.695Z,6.85
2023-01-29T21:08:08.847Z,7.32
2023-01-29T21:13:19.818Z,5.80
2023-01-29T21:15:47.698Z,6.78
2023-01-29T21:18:17.476Z,6.70
2023-01-29T21:20:45.608Z,6.38
2023-01-29T21:23:13.799Z,5.88
2023-01-29T21:25:49.079Z,6.60
2023-01-29T21:28:17.404Z,5.95
2023-01-29T21:30:48.940Z,6.35
2023-01-29T21:33:16.685Z,6.78
2023-01-29T21:35:44.681Z,6.95
2023-01-29T21:38:12.333Z,7.38
2023-01-29T21:40:39.976Z,5.80
2023-01-29T21:43:12.314Z,8.07
2023-01-29T21:45:40.793Z,6.47
2023-01-29T21:48:10.656Z,5.40
2023-01-29T21:50:38.373Z,6.40
2023-01-29T21:53:06.102Z,7.05
2023-01-29T21:55:38.254Z,6.20
2023-01-29T21:58:06.074Z,5.82
2023-01-29T22:00:33.654Z,6.35
2023-01-29T22:03:01.317Z,6.25
2023-01-29T22:05:30.691Z,5.45
2023-01-29T22:07:58.332Z,5.88
2023-01-29T22:10:26.039Z,6.07
2023-01-29T22:12:54.312Z,6.65
2023-01-29T22:15:24.274Z,5.70
2023-01-29T22:17:53.098Z,5.65
2023-01-29T22:20:32.307Z,6.20
2023-01-29T22:23:01.525Z,6.65
2023-01-29T22:25:29.249Z,5.78
2023-01-29T22:27:56.884Z,5.88
2023-01-29T22:30:31.802Z,5.85
2023-01-29T22:33:01.441Z,5.65
2023-01-29T22:35:29.095Z,6.75
2023-01-29T22:37:57.103Z,6.38
2023-01-29T22:40:27.002Z,6.18
2023-01-29T22:42:54.901Z,6.07
2023-01-29T22:45:23.056Z,5.88
2023-01-29T22:47:50.916Z,5.97
2023-01-29T22:50:19.265Z,5.40
2023-01-29T22:52:53.740Z,5.45
2023-01-29T22:55:22.025Z,5.55
2023-01-29T22:57:56.605Z,5.95
2023-01-29T23:00:24.372Z,5.35
2023-01-29T23:02:52.446Z,5.93
2023-01-29T23:05:20.578Z,5.50
2023-01-29T23:07:49.350Z,5.93
2023-01-29T23:10:17.699Z,6.60
2023-01-29T23:12:46.426Z,5.72
2023-01-29T23:15:16.083Z,8.02
2023-01-29T23:17:48.185Z,6.60
2023-01-29T23:20:16.670Z,6.65
2023-01-29T23:22:44.548Z,7.35
2023-01-29T23:25:12.269Z,6.38
2023-01-29T23:27:38.954Z,6.82
2023-01-29T23:30:12.381Z,6.93
2023-01-29T23:32:42.066Z,6.93
2023-01-29T23:35:12.864Z,7.05
2023-01-29T23:37:41.202Z,7.78
2023-01-29T23:42:56.896Z,8.43
2023-01-29T23:45:26.909Z,9.13
2023-01-29T23:48:11.358Z,6.82
2023-01-29T23:50:41.058Z,9.00
2023-01-29T23:53:09.100Z,7.35
2023-01-29T23:55:37.109Z,7.47
2023-01-29T23:58:05.292Z,8.70
